sensor_id;sensor_type;location;lat;lon;timestamp;P1;durP1;ratioP1;P2;durP2;ratioP2
53022;SDS011;38913;44.338;11.206;2023-07-13T00:00:33;8.75;;;3.72;;
53022;SDS011;38913;44.338;11.206;2023-07-13T00:02:58;12.37;;;4.43;;
53022;SDS011;38913;44.338;11.206;2023-07-13T00:05:24;16.08;;;4.05;;
53022;SDS011;38913;44.338;11.206;2023-07-13T00:07:49;11.73;;;3.85;;
53022;SDS011;38913;44.338;11.206;2023-07-13T00:10:15;12.73;;;3.65;;
53022;SDS011;38913;44.338;11.206;2023-07-13T00:12:40;8.75;;;3.58;;
53022;SDS011;38913;44.338;11.206;2023-07-13T00:15:07;10.85;;;4.20;;
53022;SDS011;38913;44.338;11.206;2023-07-13T00:17:33;11.55;;;3.90;;
53022;SDS011;38913;44.338;11.206;2023-07-13T00:19:59;15.82;;;4.78;;
53022;SDS011;38913;44.338;11.206;2023-07-13T00:22:24;10.27;;;3.73;;
53022;SDS011;38913;44.338;11.206;2023-07-13T00:24:53;11.98;;;4.03;;
53022;SDS011;38913;44.338;11.206;2023-07-13T00:27:20;11.65;;;4.07;;
53022;SDS011;38913;44.338;11.206;2023-07-13T00:29:45;12.50;;;3.80;;
53022;SDS011;38913;44.338;11.206;2023-07-13T00:32:11;13.00;;;3.80;;
53022;SDS011;38913;44.338;11.206;2023-07-13T00:34:36;14.52;;;3.97;;
53022;SDS011;38913;44.338;11.206;2023-07-13T00:37:02;10.35;;;3.42;;
53022;SDS011;38913;44.338;11.206;2023-07-13T00:39:27;8.27;;;3.50;;
53022;SDS011;38913;44.338;11.206;2023-07-13T00:41:52;10.53;;;3.90;;
53022;SDS011;38913;44.338;11.206;2023-07-13T00:44:19;11.57;;;3.83;;
53022;SDS011;38913;44.338;11.206;2023-07-13T00:49:50;6.93;;;3.95;;
53022;SDS011;38913;44.338;11.206;2023-07-13T00:52:15;9.27;;;3.67;;
53022;SDS011;38913;44.338;11.206;2023-07-13T00:54:41;10.80;;;3.90;;
53022;SDS011;38913;44.338;11.206;2023-07-13T00:57:09;13.02;;;4.65;;
53022;SDS011;38913;44.338;11.206;2023-07-13T00:59:36;12.75;;;4.30;;
53022;SDS011;38913;44.338;11.206;2023-07-13T01:02:05;12.43;;;4.00;;
53022;SDS011;38913;44.338;11.206;2023-07-13T01:04:30;9.15;;;4.10;;
53022;SDS011;38913;44.338;11.206;2023-07-13T01:06:55;9.33;;;3.70;;
53022;SDS011;38913;44.338;11.206;2023-07-13T01:09:21;11.73;;;3.95;;
53022;SDS011;38913;44.338;11.206;2023-07-13T01:11:47;9.77;;;3.42;;
53022;SDS011;38913;44.338;11.206;2023-07-13T01:14:12;8.50;;;3.70;;
53022;SDS011;38913;44.338;11.206;2023-07-13T01:16:39;12.85;;;4.30;;
53022;SDS011;38913;44.338;11.206;2023-07-13T01:19:24;9.07;;;3.53;;
53022;SDS011;38913;44.338;11.206;2023-07-13T01:21:51;7.55;;;3.00;;
53022;SDS011;38913;44.338;11.206;2023-07-13T01:24:16;8.15;;;3.22;;
53022;SDS011;38913;44.338;11.206;2023-07-13T01:26:42;7.13;;;3.20;;
53022;SDS011;38913;44.338;11.206;2023-07-13T01:29:07;7.82;;;3.53;;
53022;SDS011;38913;44.338;11.206;2023-07-13T01:31:32;5.63;;;3.23;;
53022;SDS011;38913;44.338;11.206;2023-07-13T01:39:22;7.93;;;3.50;;
53022;SDS011;38913;44.338;11.206;2023-07-13T01:41:47;10.95;;;3.50;;
53022;SDS011;38913;44.338;11.206;2023-07-13T01:44:12;9.03;;;3.43;;
53022;SDS011;38913;44.338;11.206;2023-07-13T01:46:37;9.33;;;3.67;;
53022;SDS011;38913;44.338;11.206;2023-07-13T01:49:05;7.97;;;3.67;;
53022;SDS011;38913;44.338;11.206;2023-07-13T01:51:30;10.40;;;3.55;;
53022;SDS011;38913;44.338;11.206;2023-07-13T01:53:55;10.83;;;3.60;;
53022;SDS011;38913;44.338;11.206;2023-07-13T01:56:21;9.82;;;3.72;;
53022;SDS011;38913;44.338;11.206;2023-07-13T01:58:46;9.27;;;3.67;;
53022;SDS011;38913;44.338;11.206;2023-07-13T02:01:12;12.10;;;3.53;;
53022;SDS011;38913;44.338;11.206;2023-07-13T02:03:37;8.60;;;4.00;;
53022;SDS011;38913;44.338;11.206;2023-07-13T02:06:02;7.17;;;3.53;;
53022;SDS011;38913;44.338;11.206;2023-07-13T02:08:28;9.70;;;3.80;;
53022;SDS011;38913;44.338;11.206;2023-07-13T02:10:53;7.97;;;3.88;;
53022;SDS011;38913;44.338;11.206;2023-07-13T02:13:18;8.13;;;3.47;;
53022;SDS011;38913;44.338;11.206;2023-07-13T02:15:43;9.73;;;3.87;;
53022;SDS011;38913;44.338;11.206;2023-07-13T02:18:09;11.07;;;3.90;;
53022;SDS011;38913;44.338;11.206;2023-07-13T02:20:34;8.47;;;3.53;;
53022;SDS011;38913;44.338;11.206;2023-07-13T02:22:59;8.97;;;3.80;;
53022;SDS011;38913;44.338;11.206;2023-07-13T02:25:24;13.33;;;3.90;;
53022;SDS011;38913;44.338;11.206;2023-07-13T02:27:51;8.90;;;3.85;;
53022;SDS011;38913;44.338;11.206;2023-07-13T02:30:17;9.68;;;3.63;;
53022;SDS011;38913;44.338;11.206;2023-07-13T02:32:42;6.88;;;3.83;;
53022;SDS011;38913;44.338;11.206;2023-07-13T02:35:14;9.25;;;3.80;;
53022;SDS011;38913;44.338;11.206;2023-07-13T02:37:40;7.57;;;3.60;;
53022;SDS011;38913;44.338;11.206;2023-07-13T02:40:06;11.25;;;3.60;;
53022;SDS011;38913;44.338;11.206;2023-07-13T02:42:33;10.75;;;3.67;;
53022;SDS011;38913;44.338;11.206;2023-07-13T02:44:58;8.57;;;3.70;;
53022;SDS011;38913;44.338;11.206;2023-07-13T02:47:24;9.83;;;3.93;;
53022;SDS011;38913;44.338;11.206;2023-07-13T02:49:49;8.10;;;3.67;;
53022;SDS011;38913;44.338;11.206;2023-07-13T02:52:14;7.27;;;3.87;;
53022;SDS011;38913;44.338;11.206;2023-07-13T02:54:40;9.33;;;3.93;;
53022;SDS011;38913;44.338;11.206;2023-07-13T02:57:05;9.65;;;3.88;;
53022;SDS011;38913;44.338;11.206;2023-07-13T03:04:48;9.63;;;3.70;;
53022;SDS011;38913;44.338;11.206;2023-07-13T03:07:13;9.43;;;3.80;;
53022;SDS011;38913;44.338;11.206;2023-07-13T03:09:39;7.57;;;3.75;;
53022;SDS011;38913;44.338;11.206;2023-07-13T03:12:04;8.63;;;3.90;;
53022;SDS011;38913;44.338;11.206;2023-07-13T03:14:30;7.18;;;4.30;;
53022;SDS011;38913;44.338;11.206;2023-07-13T03:16:55;7.87;;;3.87;;
53022;SDS011;38913;44.338;11.206;2023-07-13T03:19:20;7.75;;;3.40;;
53022;SDS011;38913;44.338;11.206;2023-07-13T03:21:46;7.25;;;4.32;;
53022;SDS011;38913;44.338;11.206;2023-07-13T03:24:11;9.03;;;4.00;;
53022;SDS011;38913;44.338;11.206;2023-07-13T03:26:36;9.10;;;3.90;;
53022;SDS011;38913;44.338;11.206;2023-07-13T03:29:02;10.95;;;4.75;;
53022;SDS011;38913;44.338;11.206;2023-07-13T03:31:28;12.80;;;4.40;;
53022;SDS011;38913;44.338;11.206;2023-07-13T03:33:54;8.80;;;4.45;;
53022;SDS011;38913;44.338;11.206;2023-07-13T03:36:21;8.70;;;3.75;;
53022;SDS011;38913;44.338;11.206;2023-07-13T03:38:50;8.50;;;4.32;;
53022;SDS011;38913;44.338;11.206;2023-07-13T03:41:16;8.20;;;4.00;;
53022;SDS011;38913;44.338;11.206;2023-07-13T03:43:41;10.43;;;4.63;;
53022;SDS011;38913;44.338;11.206;2023-07-13T03:46:07;10.77;;;4.65;;
53022;SDS011;38913;44.338;11.206;2023-07-13T03:48:32;9.13;;;4.33;;
53022;SDS011;38913;44.338;11.206;2023-07-13T03:50:57;10.60;;;5.23;;
53022;SDS011;38913;44.338;11.206;2023-07-13T03:53:22;9.73;;;5.20;;
53022;SDS011;38913;44.338;11.206;2023-07-13T03:55:48;11.77;;;4.60;;
53022;SDS011;38913;44.338;11.206;2023-07-13T03:58:28;8.27;;;4.70;;
53022;SDS011;38913;44.338;11.206;2023-07-13T04:00:54;8.98;;;4.30;;
53022;SDS011;38913;44.338;11.206;2023-07-13T04:03:19;8.18;;;4.78;;
53022;SDS011;38913;44.338;11.206;2023-07-13T04:05:45;9.88;;;4.97;;
53022;SDS011;38913;44.338;11.206;2023-07-13T04:08:12;9.13;;;4.45;;
53022;SDS011;38913;44.338;11.206;2023-07-13T04:10:37;7.43;;;4.05;;
53022;SDS011;38913;44.338;11.206;2023-07-13T04:13:03;8.77;;;4.35;;
53022;SDS011;38913;44.338;11.206;2023-07-13T04:15:29;9.05;;;4.65;;
53022;SDS011;38913;44.338;11.206;2023-07-13T04:17:55;9.48;;;4.47;;
53022;SDS011;38913;44.338;11.206;2023-07-13T04:20:20;7.67;;;4.93;;
53022;SDS011;38913;44.338;11.206;2023-07-13T04:22:47;12.85;;;5.22;;
53022;SDS011;38913;44.338;11.206;2023-07-13T04:25:12;9.48;;;4.28;;
53022;SDS011;38913;44.338;11.206;2023-07-13T04:27:37;7.37;;;5.00;;
53022;SDS011;38913;44.338;11.206;2023-07-13T04:30:04;8.73;;;4.43;;
53022;SDS011;38913;44.338;11.206;2023-07-13T04:32:30;9.23;;;4.85;;
53022;SDS011;38913;44.338;11.206;2023-07-13T04:34:55;9.48;;;4.30;;
53022;SDS011;38913;44.338;11.206;2023-07-13T04:37:22;9.43;;;4.70;;
53022;SDS011;38913;44.338;11.206;2023-07-13T04:39:47;9.43;;;4.53;;
53022;SDS011;38913;44.338;11.206;2023-07-13T04:42:12;10.00;;;4.80;;
53022;SDS011;38913;44.338;11.206;2023-07-13T04:44:38;9.18;;;4.45;;
53022;SDS011;38913;44.338;11.206;2023-07-13T04:47:03;7.63;;;3.70;;
53022;SDS011;38913;44.338;11.206;2023-07-13T04:49:29;8.10;;;4.03;;
53022;SDS011;38913;44.338;11.206;2023-07-13T04:51:54;9.07;;;4.17;;
53022;SDS011;38913;44.338;11.206;2023-07-13T04:54:20;7.65;;;4.13;;
53022;SDS011;38913;44.338;11.206;2023-07-13T04:56:46;8.20;;;4.38;;
53022;SDS011;38913;44.338;11.206;2023-07-13T04:59:11;7.07;;;3.80;;
53022;SDS011;38913;44.338;11.206;2023-07-13T05:01:36;9.30;;;4.33;;
53022;SDS011;38913;44.338;11.206;2023-07-13T05:04:01;8.93;;;4.40;;
53022;SDS011;38913;44.338;11.206;2023-07-13T05:06:27;6.85;;;3.50;;
53022;SDS011;38913;44.338;11.206;2023-07-13T05:08:53;9.63;;;4.05;;
53022;SDS011;38913;44.338;11.206;2023-07-13T05:11:18;8.57;;;4.23;;
53022;SDS011;38913;44.338;11.206;2023-07-13T05:13:57;8.50;;;4.20;;
53022;SDS011;38913;44.338;11.206;2023-07-13T05:16:22;8.77;;;3.85;;
53022;SDS011;38913;44.338;11.206;2023-07-13T05:18:47;7.77;;;3.90;;
53022;SDS011;38913;44.338;11.206;2023-07-13T05:21:13;9.02;;;3.78;;
53022;SDS011;38913;44.338;11.206;2023-07-13T05:23:38;9.98;;;4.13;;
53022;SDS011;38913;44.338;11.206;2023-07-13T05:26:05;10.10;;;4.32;;
53022;SDS011;38913;44.338;11.206;2023-07-13T05:31:02;9.55;;;4.43;;
53022;SDS011;38913;44.338;11.206;2023-07-13T05:33:28;8.93;;;4.00;;
53022;SDS011;38913;44.338;11.206;2023-07-13T05:35:53;11.85;;;4.50;;
53022;SDS011;38913;44.338;11.206;2023-07-13T05:38:18;9.15;;;3.72;;
53022;SDS011;38913;44.338;11.206;2023-07-13T05:40:44;8.83;;;3.57;;
53022;SDS011;38913;44.338;11.206;2023-07-13T05:43:09;7.72;;;3.90;;
53022;SDS011;38913;44.338;11.206;2023-07-13T05:45:35;11.40;;;4.13;;
53022;SDS011;38913;44.338;11.206;2023-07-13T05:48:00;8.77;;;3.77;;
53022;SDS011;38913;44.338;11.206;2023-07-13T05:50:26;8.02;;;3.88;;
53022;SDS011;38913;44.338;11.206;2023-07-13T05:52:51;6.85;;;3.80;;
53022;SDS011;38913;44.338;11.206;2023-07-13T05:55:17;8.93;;;3.85;;
53022;SDS011;38913;44.338;11.206;2023-07-13T05:57:42;7.30;;;3.67;;
53022;SDS011;38913;44.338;11.206;2023-07-13T06:00:08;7.70;;;3.47;;
53022;SDS011;38913;44.338;11.206;2023-07-13T06:02:33;9.02;;;3.67;;
53022;SDS011;38913;44.338;11.206;2023-07-13T06:04:58;8.20;;;3.60;;
53022;SDS011;38913;44.338;11.206;2023-07-13T06:07:23;39.53;;;6.47;;
53022;SDS011;38913;44.338;11.206;2023-07-13T06:09:49;9.55;;;3.53;;
53022;SDS011;38913;44.338;11.206;2023-07-13T06:12:14;6.30;;;3.40;;
53022;SDS011;38913;44.338;11.206;2023-07-13T06:14:39;7.47;;;3.50;;
53022;SDS011;38913;44.338;11.206;2023-07-13T06:17:05;9.48;;;3.50;;
53022;SDS011;38913;44.338;11.206;2023-07-13T06:19:41;13.90;;;4.55;;
53022;SDS011;38913;44.338;11.206;2023-07-13T06:22:06;8.38;;;3.80;;
53022;SDS011;38913;44.338;11.206;2023-07-13T06:24:31;5.43;;;3.10;;
53022;SDS011;38913;44.338;11.206;2023-07-13T06:26:57;7.07;;;3.67;;
53022;SDS011;38913;44.338;11.206;2023-07-13T06:29:22;6.87;;;3.80;;
53022;SDS011;38913;44.338;11.206;2023-07-13T06:31:47;10.27;;;4.50;;
53022;SDS011;38913;44.338;11.206;2023-07-13T06:34:12;8.80;;;3.70;;
53022;SDS011;38913;44.338;11.206;2023-07-13T06:36:37;6.40;;;3.47;;
53022;SDS011;38913;44.338;11.206;2023-07-13T06:39:03;5.75;;;3.30;;
53022;SDS011;38913;44.338;11.206;2023-07-13T06:41:28;6.75;;;3.63;;
53022;SDS011;38913;44.338;11.206;2023-07-13T06:43:55;9.98;;;3.63;;
53022;SDS011;38913;44.338;11.206;2023-07-13T06:46:21;5.80;;;3.55;;
53022;SDS011;38913;44.338;11.206;2023-07-13T06:48:46;5.65;;;3.22;;
53022;SDS011;38913;44.338;11.206;2023-07-13T06:51:12;9.67;;;3.83;;
53022;SDS011;38913;44.338;11.206;2023-07-13T06:53:37;6.25;;;3.80;;
53022;SDS011;38913;44.338;11.206;2023-07-13T06:56:02;7.63;;;3.57;;
53022;SDS011;38913;44.338;11.206;2023-07-13T06:58:28;7.45;;;3.50;;
53022;SDS011;38913;44.338;11.206;2023-07-13T07:00:53;6.07;;;3.57;;
53022;SDS011;38913;44.338;11.206;2023-07-13T07:03:18;8.37;;;4.13;;
53022;SDS011;38913;44.338;11.206;2023-07-13T07:05:43;6.35;;;3.40;;
53022;SDS011;38913;44.338;11.206;2023-07-13T07:08:09;7.70;;;3.13;;
53022;SDS011;38913;44.338;11.206;2023-07-13T07:10:34;7.80;;;3.70;;
53022;SDS011;38913;44.338;11.206;2023-07-13T07:13:00;7.50;;;3.75;;
53022;SDS011;38913;44.338;11.206;2023-07-13T07:15:26;9.45;;;3.60;;
53022;SDS011;38913;44.338;11.206;2023-07-13T07:17:51;7.18;;;3.75;;
53022;SDS011;38913;44.338;11.206;2023-07-13T07:20:17;7.88;;;3.47;;
53022;SDS011;38913;44.338;11.206;2023-07-13T07:22:42;6.00;;;3.60;;
53022;SDS011;38913;44.338;11.206;2023-07-13T07:25:07;6.90;;;3.53;;
53022;SDS011;38913;44.338;11.206;2023-07-13T07:27:33;7.40;;;3.70;;
53022;SDS011;38913;44.338;11.206;2023-07-13T07:29:58;7.83;;;3.63;;
53022;SDS011;38913;44.338;11.206;2023-07-13T07:32:24;8.55;;;3.55;;
53022;SDS011;38913;44.338;11.206;2023-07-13T07:34:49;9.13;;;3.40;;
53022;SDS011;38913;44.338;11.206;2023-07-13T07:37:15;9.90;;;3.88;;
53022;SDS011;38913;44.338;11.206;2023-07-13T07:39:40;8.57;;;3.92;;
53022;SDS011;38913;44.338;11.206;2023-07-13T07:42:06;8.97;;;4.33;;
53022;SDS011;38913;44.338;11.206;2023-07-13T07:44:31;9.13;;;3.53;;
53022;SDS011;38913;44.338;11.206;2023-07-13T07:46:57;12.05;;;3.83;;
53022;SDS011;38913;44.338;11.206;2023-07-13T07:49:24;9.18;;;3.70;;
53022;SDS011;38913;44.338;11.206;2023-07-13T07:51:49;6.83;;;3.47;;
53022;SDS011;38913;44.338;11.206;2023-07-13T07:54:14;10.57;;;3.60;;
53022;SDS011;38913;44.338;11.206;2023-07-13T07:56:39;7.28;;;3.97;;
53022;SDS011;38913;44.338;11.206;2023-07-13T07:59:05;7.97;;;3.70;;
53022;SDS011;38913;44.338;11.206;2023-07-13T08:01:30;8.57;;;3.77;;
53022;SDS011;38913;44.338;11.206;2023-07-13T08:03:55;9.03;;;4.00;;
53022;SDS011;38913;44.338;11.206;2023-07-13T08:06:21;8.38;;;3.63;;
53022;SDS011;38913;44.338;11.206;2023-07-13T08:08:47;8.30;;;3.67;;
53022;SDS011;38913;44.338;11.206;2023-07-13T08:11:12;6.75;;;3.50;;
53022;SDS011;38913;44.338;11.206;2023-07-13T08:13:38;7.15;;;3.40;;
53022;SDS011;38913;44.338;11.206;2023-07-13T08:16:06;6.57;;;3.40;;
53022;SDS011;38913;44.338;11.206;2023-07-13T08:18:31;7.95;;;3.67;;
53022;SDS011;38913;44.338;11.206;2023-07-13T08:20:57;7.80;;;4.47;;
53022;SDS011;38913;44.338;11.206;2023-07-13T08:23:23;7.32;;;3.35;;
53022;SDS011;38913;44.338;11.206;2023-07-13T08:25:52;7.40;;;3.78;;
53022;SDS011;38913;44.338;11.206;2023-07-13T08:28:18;11.02;;;3.83;;
53022;SDS011;38913;44.338;11.206;2023-07-13T08:30:43;8.27;;;3.67;;
53022;SDS011;38913;44.338;11.206;2023-07-13T08:33:08;7.93;;;4.00;;
53022;SDS011;38913;44.338;11.206;2023-07-13T08:35:33;9.33;;;3.87;;
53022;SDS011;38913;44.338;11.206;2023-07-13T08:37:59;5.47;;;3.33;;
53022;SDS011;38913;44.338;11.206;2023-07-13T08:40:25;8.25;;;3.70;;
53022;SDS011;38913;44.338;11.206;2023-07-13T08:42:53;7.35;;;3.75;;
53022;SDS011;38913;44.338;11.206;2023-07-13T08:45:21;8.40;;;3.90;;
53022;SDS011;38913;44.338;11.206;2023-07-13T08:47:49;7.95;;;3.90;;
53022;SDS011;38913;44.338;11.206;2023-07-13T08:50:17;9.68;;;3.88;;
53022;SDS011;38913;44.338;11.206;2023-07-13T08:52:44;8.23;;;4.60;;
53022;SDS011;38913;44.338;11.206;2023-07-13T08:55:13;5.18;;;3.60;;
53022;SDS011;38913;44.338;11.206;2023-07-13T08:57:38;8.43;;;4.10;;
53022;SDS011;38913;44.338;11.206;2023-07-13T09:00:07;6.07;;;4.00;;
53022;SDS011;38913;44.338;11.206;2023-07-13T09:02:38;7.72;;;3.92;;
53022;SDS011;38913;44.338;11.206;2023-07-13T09:05:08;9.77;;;4.25;;
53022;SDS011;38913;44.338;11.206;2023-07-13T09:07:45;8.60;;;4.25;;
53022;SDS011;38913;44.338;11.206;2023-07-13T09:10:20;8.20;;;4.00;;
53022;SDS011;38913;44.338;11.206;2023-07-13T09:12:50;11.80;;;5.15;;
53022;SDS011;38913;44.338;11.206;2023-07-13T09:17:47;14.43;;;5.10;;
53022;SDS011;38913;44.338;11.206;2023-07-13T09:22:38;8.83;;;4.53;;
53022;SDS011;38913;44.338;11.206;2023-07-13T09:27:31;8.10;;;4.32;;
53022;SDS011;38913;44.338;11.206;2023-07-13T09:30:22;7.50;;;4.50;;
53022;SDS011;38913;44.338;11.206;2023-07-13T09:32:50;12.52;;;5.95;;
53022;SDS011;38913;44.338;11.206;2023-07-13T09:35:17;13.13;;;5.43;;
53022;SDS011;38913;44.338;11.206;2023-07-13T09:37:44;9.98;;;5.07;;
53022;SDS011;38913;44.338;11.206;2023-07-13T09:44:17;6.20;;;3.63;;
53022;SDS011;38913;44.338;11.206;2023-07-13T09:48:16;5.43;;;3.45;;
53022;SDS011;38913;44.338;11.206;2023-07-13T09:51:42;4.15;;;3.13;;
53022;SDS011;38913;44.338;11.206;2023-07-13T09:55:30;4.25;;;2.63;;
53022;SDS011;38913;44.338;11.206;2023-07-13T09:58:58;6.43;;;3.38;;
53022;SDS011;38913;44.338;11.206;2023-07-13T10:02:34;2.10;;;1.00;;
53022;SDS011;38913;44.338;11.206;2023-07-13T10:06:13;1.73;;;1.08;;
53022;SDS011;38913;44.338;11.206;2023-07-13T10:13:08;3.22;;;1.55;;
53022;SDS011;38913;44.338;11.206;2023-07-13T10:16:56;3.88;;;1.00;;
53022;SDS011;38913;44.338;11.206;2023-07-13T10:20:23;1.27;;;0.73;;
53022;SDS011;38913;44.338;11.206;2023-07-13T10:23:55;3.10;;;1.00;;
53022;SDS011;38913;44.338;11.206;2023-07-13T10:27:18;1.70;;;0.75;;
53022;SDS011;38913;44.338;11.206;2023-07-13T10:30:34;1.27;;;0.75;;
53022;SDS011;38913;44.338;11.206;2023-07-13T10:33:30;1.58;;;0.90;;
53022;SDS011;38913;44.338;11.206;2023-07-13T10:39:20;1.48;;;0.80;;
53022;SDS011;38913;44.338;11.206;2023-07-13T10:42:05;3.20;;;1.00;;
53022;SDS011;38913;44.338;11.206;2023-07-13T10:44:42;2.50;;;1.10;;
53022;SDS011;38913;44.338;11.206;2023-07-13T10:49:52;1.92;;;1.00;;
53022;SDS011;38913;44.338;11.206;2023-07-13T10:55:53;2.58;;;0.80;;
53022;SDS011;38913;44.338;11.206;2023-07-13T10:58:36;2.58;;;0.80;;
53022;SDS011;38913;44.338;11.206;2023-07-13T11:01:03;1.90;;;0.85;;
53022;SDS011;38913;44.338;11.206;2023-07-13T11:03:29;1.52;;;0.70;;
53022;SDS011;38913;44.338;11.206;2023-07-13T11:06:12;1.38;;;0.85;;
53022;SDS011;38913;44.338;11.206;2023-07-13T11:21:21;1.77;;;0.80;;
53022;SDS011;38913;44.338;11.206;2023-07-13T11:23:54;1.23;;;0.77;;
53022;SDS011;38913;44.338;11.206;2023-07-13T11:31:52;2.47;;;1.08;;
53022;SDS011;38913;44.338;11.206;2023-07-13T11:34:18;2.47;;;1.17;;
53022;SDS011;38913;44.338;11.206;2023-07-13T11:36:46;1.83;;;1.00;;
53022;SDS011;38913;44.338;11.206;2023-07-13T11:39:32;2.22;;;0.90;;
53022;SDS011;38913;44.338;11.206;2023-07-13T11:42:09;2.28;;;1.00;;
53022;SDS011;38913;44.338;11.206;2023-07-13T11:44:41;2.88;;;1.35;;
53022;SDS011;38913;44.338;11.206;2023-07-13T11:47:11;1.25;;;0.77;;
53022;SDS011;38913;44.338;11.206;2023-07-13T11:49:48;2.08;;;1.00;;
53022;SDS011;38913;44.338;11.206;2023-07-13T11:52:14;2.03;;;0.95;;
53022;SDS011;38913;44.338;11.206;2023-07-13T11:54:50;2.03;;;0.90;;
53022;SDS011;38913;44.338;11.206;2023-07-13T11:57:24;1.77;;;1.00;;
53022;SDS011;38913;44.338;11.206;2023-07-13T11:59:51;1.95;;;0.80;;
53022;SDS011;38913;44.338;11.206;2023-07-13T12:02:21;1.50;;;0.80;;
53022;SDS011;38913;44.338;11.206;2023-07-13T12:04:49;2.88;;;1.00;;
53022;SDS011;38913;44.338;11.206;2023-07-13T12:07:17;3.78;;;1.25;;
53022;SDS011;38913;44.338;11.206;2023-07-13T12:09:43;1.63;;;1.10;;
53022;SDS011;38913;44.338;11.206;2023-07-13T12:12:13;3.00;;;1.50;;
53022;SDS011;38913;44.338;11.206;2023-07-13T12:14:39;1.73;;;0.98;;
53022;SDS011;38913;44.338;11.206;2023-07-13T12:17:09;2.58;;;1.20;;
53022;SDS011;38913;44.338;11.206;2023-07-13T12:19:35;3.50;;;1.55;;
53022;SDS011;38913;44.338;11.206;2023-07-13T12:22:01;3.33;;;1.35;;
53022;SDS011;38913;44.338;11.206;2023-07-13T12:24:26;4.53;;;2.20;;
53022;SDS011;38913;44.338;11.206;2023-07-13T12:26:52;3.90;;;1.90;;
53022;SDS011;38913;44.338;11.206;2023-07-13T12:29:18;3.78;;;1.60;;
53022;SDS011;38913;44.338;11.206;2023-07-13T12:31:44;2.97;;;2.35;;
53022;SDS011;38913;44.338;11.206;2023-07-13T12:34:17;4.82;;;3.08;;
53022;SDS011;38913;44.338;11.206;2023-07-13T12:36:52;7.15;;;2.47;;
53022;SDS011;38913;44.338;11.206;2023-07-13T12:41:50;5.10;;;2.75;;
53022;SDS011;38913;44.338;11.206;2023-07-13T12:44:17;5.35;;;3.80;;
53022;SDS011;38913;44.338;11.206;2023-07-13T12:49:42;5.85;;;3.38;;
53022;SDS011;38913;44.338;11.206;2023-07-13T12:52:15;4.93;;;3.47;;
53022;SDS011;38913;44.338;11.206;2023-07-13T12:54:40;5.70;;;3.75;;
53022;SDS011;38913;44.338;11.206;2023-07-13T12:57:07;5.63;;;3.87;;
53022;SDS011;38913;44.338;11.206;2023-07-13T12:59:37;6.32;;;4.20;;
53022;SDS011;38913;44.338;11.206;2023-07-13T13:02:07;5.68;;;4.28;;
53022;SDS011;38913;44.338;11.206;2023-07-13T13:04:43;7.15;;;4.60;;
53022;SDS011;38913;44.338;11.206;2023-07-13T13:07:09;7.55;;;4.07;;
53022;SDS011;38913;44.338;11.206;2023-07-13T13:09:34;7.35;;;4.28;;
53022;SDS011;38913;44.338;11.206;2023-07-13T13:12:00;5.60;;;4.17;;
53022;SDS011;38913;44.338;11.206;2023-07-13T13:14:25;7.15;;;4.05;;
53022;SDS011;38913;44.338;11.206;2023-07-13T13:16:50;4.90;;;4.13;;
53022;SDS011;38913;44.338;11.206;2023-07-13T13:19:18;6.72;;;4.07;;
53022;SDS011;38913;44.338;11.206;2023-07-13T13:21:44;7.22;;;5.28;;
53022;SDS011;38913;44.338;11.206;2023-07-13T13:24:17;9.00;;;5.43;;
53022;SDS011;38913;44.338;11.206;2023-07-13T13:26:42;7.90;;;5.03;;
53022;SDS011;38913;44.338;11.206;2023-07-13T13:29:18;7.30;;;4.93;;
53022;SDS011;38913;44.338;11.206;2023-07-13T13:31:43;5.68;;;4.75;;
53022;SDS011;38913;44.338;11.206;2023-07-13T13:34:13;7.37;;;5.40;;
53022;SDS011;38913;44.338;11.206;2023-07-13T13:36:39;7.05;;;4.90;;
53022;SDS011;38913;44.338;11.206;2023-07-13T13:42:08;6.47;;;4.47;;
53022;SDS011;38913;44.338;11.206;2023-07-13T13:44:34;7.35;;;4.60;;
53022;SDS011;38913;44.338;11.206;2023-07-13T13:46:59;7.10;;;4.00;;
53022;SDS011;38913;44.338;11.206;2023-07-13T13:49:25;7.23;;;4.63;;
53022;SDS011;38913;44.338;11.206;2023-07-13T13:51:51;6.18;;;4.40;;
53022;SDS011;38913;44.338;11.206;2023-07-13T13:54:17;5.13;;;3.72;;
53022;SDS011;38913;44.338;11.206;2023-07-13T13:56:43;8.48;;;4.00;;
53022;SDS011;38913;44.338;11.206;2023-07-13T13:59:09;7.78;;;4.10;;
53022;SDS011;38913;44.338;11.206;2023-07-13T14:01:35;4.15;;;3.72;;
53022;SDS011;38913;44.338;11.206;2023-07-13T14:04:00;5.38;;;3.72;;
53022;SDS011;38913;44.338;11.206;2023-07-13T14:06:26;4.83;;;3.83;;
53022;SDS011;38913;44.338;11.206;2023-07-13T14:08:51;5.70;;;3.90;;
53022;SDS011;38913;44.338;11.206;2023-07-13T14:11:17;5.93;;;3.80;;
53022;SDS011;38913;44.338;11.206;2023-07-13T14:13:49;6.22;;;3.80;;
53022;SDS011;38913;44.338;11.206;2023-07-13T14:16:16;5.32;;;3.80;;
53022;SDS011;38913;44.338;11.206;2023-07-13T14:18:44;6.60;;;3.90;;
53022;SDS011;38913;44.338;11.206;2023-07-13T14:21:17;5.28;;;3.70;;
53022;SDS011;38913;44.338;11.206;2023-07-13T14:23:43;10.52;;;3.47;;
53022;SDS011;38913;44.338;11.206;2023-07-13T14:26:13;6.30;;;3.95;;
53022;SDS011;38913;44.338;11.206;2023-07-13T14:28:43;4.45;;;3.75;;
53022;SDS011;38913;44.338;11.206;2023-07-13T14:31:09;4.68;;;4.10;;
53022;SDS011;38913;44.338;11.206;2023-07-13T14:33:34;5.57;;;4.10;;
53022;SDS011;38913;44.338;11.206;2023-07-13T14:36:00;5.70;;;3.90;;
53022;SDS011;38913;44.338;11.206;2023-07-13T14:38:25;7.40;;;4.00;;
53022;SDS011;38913;44.338;11.206;2023-07-13T14:40:50;6.82;;;3.92;;
53022;SDS011;38913;44.338;11.206;2023-07-13T14:43:16;6.57;;;4.20;;
53022;SDS011;38913;44.338;11.206;2023-07-13T14:45:43;6.50;;;4.20;;
53022;SDS011;38913;44.338;11.206;2023-07-13T14:48:22;7.57;;;4.18;;
53022;SDS011;38913;44.338;11.206;2023-07-13T14:50:55;8.00;;;4.13;;
53022;SDS011;38913;44.338;11.206;2023-07-13T14:53:21;29.33;;;6.50;;
53022;SDS011;38913;44.338;11.206;2023-07-13T14:55:47;6.32;;;4.47;;
53022;SDS011;38913;44.338;11.206;2023-07-13T14:58:12;6.63;;;4.20;;
53022;SDS011;38913;44.338;11.206;2023-07-13T15:00:38;7.35;;;4.47;;
53022;SDS011;38913;44.338;11.206;2023-07-13T15:03:04;7.40;;;4.22;;
53022;SDS011;38913;44.338;11.206;2023-07-13T15:05:31;6.65;;;4.30;;
53022;SDS011;38913;44.338;11.206;2023-07-13T15:07:58;6.38;;;4.30;;
53022;SDS011;38913;44.338;11.206;2023-07-13T15:10:25;6.18;;;4.45;;
53022;SDS011;38913;44.338;11.206;2023-07-13T15:12:51;7.05;;;4.47;;
53022;SDS011;38913;44.338;11.206;2023-07-13T15:15:16;5.55;;;4.13;;
53022;SDS011;38913;44.338;11.206;2023-07-13T15:17:44;6.85;;;4.35;;
53022;SDS011;38913;44.338;11.206;2023-07-13T15:22:44;7.13;;;4.63;;
53022;SDS011;38913;44.338;11.206;2023-07-13T15:25:18;6.38;;;4.80;;
53022;SDS011;38913;44.338;11.206;2023-07-13T15:27:43;8.05;;;4.93;;
53022;SDS011;38913;44.338;11.206;2023-07-13T15:30:09;5.05;;;4.35;;
53022;SDS011;38913;44.338;11.206;2023-07-13T15:32:34;5.90;;;5.03;;
53022;SDS011;38913;44.338;11.206;2023-07-13T15:35:00;8.02;;;4.90;;
53022;SDS011;38913;44.338;11.206;2023-07-13T15:37:25;8.53;;;4.90;;
53022;SDS011;38913;44.338;11.206;2023-07-13T15:39:50;6.63;;;4.80;;
53022;SDS011;38913;44.338;11.206;2023-07-13T15:42:16;7.37;;;4.73;;
53022;SDS011;38913;44.338;11.206;2023-07-13T15:44:41;10.63;;;5.40;;
53022;SDS011;38913;44.338;11.206;2023-07-13T15:47:09;7.63;;;4.82;;
53022;SDS011;38913;44.338;11.206;2023-07-13T15:49:36;6.63;;;4.95;;
53022;SDS011;38913;44.338;11.206;2023-07-13T15:52:01;7.57;;;5.20;;
53022;SDS011;38913;44.338;11.206;2023-07-13T15:54:26;7.80;;;4.63;;